»·PEaware :: N46AN KBUR-KFUL

N46AN :: KBUR-KFUL

FLIGHT INFORMATION

Flight Status: Arrived
Operator: Privately registered:
United States
More flights under this callsign
Pilot: Carson T. (20437)
Aircraft: CESSNA 172 SKYHAWK
(C172)
More flights by this aircraft type
Origin: KBUR Bob Hope-Burbank
United States
Destination: KFUL Fullerton Mun
United States
More flights between these airports :: More routes between these airports
Route: KEMT
File this flight plan on PilotEdge
Remarks:
Altitude:
(Current/Filed)
3,500ft
Speed:
(Current/Filed)
125kts
Departed: 16-Sep-18 01:21 PM
Arrived: 16-Sep-18 01:42 PM
Distance/Time
Traveled:
27nm/0:21
Distance/Time
To Go:
Arrived

Flight Plot

Page will automatically refresh every two minutes.


Map Options




Map Legend


Flown Route
Filed Route
Departure Airport
Arrival Airport
Navaid (VOR, NDB)
Fix

Horizontal Profiles

Position Reports

Time Latitude Longitude Heading Altitude Ground
Speed
16-Sep-18 13:00 34.195735 -118.365167 179 781ft 0kts
16-Sep-18 13:01 34.195735 -118.365167 179 781ft 0kts
16-Sep-18 13:02 34.195735 -118.365167 179 781ft 0kts
16-Sep-18 13:03 34.195735 -118.365167 179 781ft 0kts
16-Sep-18 13:04 34.195735 -118.365167 179 781ft 0kts
16-Sep-18 13:05 34.195735 -118.365167 179 781ft 0kts
16-Sep-18 13:06 34.195735 -118.365167 179 781ft 0kts
16-Sep-18 13:07 34.195735 -118.365167 179 781ft 0kts
16-Sep-18 13:08 34.195735 -118.365167 179 781ft 0kts
16-Sep-18 13:09 34.195735 -118.365167 179 781ft 0kts
16-Sep-18 13:10 34.195735 -118.365167 179 781ft 0kts
16-Sep-18 13:11 34.195735 -118.365167 179 781ft 0kts
16-Sep-18 13:12 34.195735 -118.365167 179 781ft 0kts
16-Sep-18 13:13 34.195735 -118.365167 179 781ft 0kts
16-Sep-18 13:14 34.195734 -118.365167 179 781ft 0kts
16-Sep-18 13:15 34.195734 -118.365167 179 781ft 0kts
16-Sep-18 13:16 34.195734 -118.365167 179 781ft 0kts
16-Sep-18 13:17 34.195733 -118.365167 179 781ft 0kts
16-Sep-18 13:18 34.195733 -118.365167 179 781ft 0kts
16-Sep-18 13:19 34.195692 -118.365038 40 781ft 3kts
16-Sep-18 13:20 34.196757 -118.367854 270 781ft 16kts
16-Sep-18 13:21 34.197363 -118.368947 1 781ft 0kts
16-Sep-18 13:22 34.197364 -118.368947 1 781ft 0kts
16-Sep-18 13:23 34.197851 -118.365620 91 781ft 53kts
16-Sep-18 13:24 34.196825 -118.337893 103 1190ft 90kts
16-Sep-18 13:25 34.190645 -118.308074 116 1732ft 92kts
16-Sep-18 13:26 34.174266 -118.281313 120 2012ft 109kts
16-Sep-18 13:27 34.160917 -118.245208 115 2128ft 113kts
16-Sep-18 13:28 34.149553 -118.213865 116 2676ft 93kts
16-Sep-18 13:29 34.139581 -118.185682 116 3153ft 88kts
16-Sep-18 13:30 34.130023 -118.158655 115 3528ft 95kts
16-Sep-18 13:31 34.117824 -118.124012 115 3504ft 121kts
16-Sep-18 13:32 34.104405 -118.086027 115 3500ft 124kts
16-Sep-18 13:33 34.090773 -118.047729 115 3500ft 124kts
16-Sep-18 13:34 34.063873 -118.028360 169 3501ft 119kts
16-Sep-18 13:35 34.031331 -118.019378 168 3499ft 119kts
16-Sep-18 13:36 33.998890 -118.010254 168 3500ft 119kts
16-Sep-18 13:37 33.966382 -118.001051 168 3500ft 119kts
16-Sep-18 13:38 33.934796 -117.992225 169 3480ft 101kts
16-Sep-18 13:39 33.906188 -117.984180 169 2715ft 107kts
16-Sep-18 13:40 33.886320 -117.990593 252 1716ft 81kts
16-Sep-18 13:41 33.876303 -117.989778 59 1202ft 89kts
16-Sep-18 13:42 33.884859 -117.969032 67 953ft 78kts
16-Sep-18 13:43 33.875400 -117.962316 256 497ft 70kts
16-Sep-18 13:44 33.872314 -117.978224 256 99ft 29kts
16-Sep-18 13:45 33.870958 -117.978803 76 99ft 4kts
16-Sep-18 13:46 33.870986 -117.978686 76 99ft 0kts
16-Sep-18 13:47 33.870986 -117.978685 76 99ft 0kts
16-Sep-18 13:48 33.870986 -117.978685 76 99ft 0kts
16-Sep-18 13:49 33.870986 -117.978684 76 99ft 0kts
16-Sep-18 13:50 33.870986 -117.978684 76 99ft 0kts
16-Sep-18 13:51 33.870986 -117.978683 76 99ft 0kts
16-Sep-18 13:52 33.870987 -117.978683 76 99ft 0kts
16-Sep-18 13:53 33.870987 -117.978682 76 99ft 0kts
16-Sep-18 13:54 33.870987 -117.978682 76 99ft 0kts
16-Sep-18 13:55 33.870987 -117.978682 76 99ft 0kts
16-Sep-18 13:56 33.870987 -117.978682 76 99ft 0kts
16-Sep-18 13:57 33.870987 -117.978682 76 99ft 0kts
16-Sep-18 13:58 33.870987 -117.978681 76 99ft 0kts

Navigation Log

Ident Type
1. KBUR Airport
2. Navaid
3. KFUL Airport